Time;durP1;ratioP1;P1;durP2;ratioP2;P2;SDS_P1;SDS_P2;PMS_P1;PMS_P2;Temp;Humidity;BMP_temperature;BMP_pressure;BME280_temperature;BME280_humidity;BME280_pressure;Samples;Min_cycle;Max_cycle;Signal;HPM_P1;HPM_P2
2021/01/13 00:02:08;;;;;;;17.88;1.95;;;2.50;99.90;;;;;;5010563;28;20045;-83
2021/01/13 00:04:38;;;;;;;15.18;2.03;;;2.50;99.90;;;;;;5027409;28;20040;-84
2021/01/13 00:07:07;;;;;;;16.05;1.90;;;2.60;99.70;;;;;;5011398;28;20155;-83
2021/01/13 00:09:33;;;;;;;7.68;1.33;;;2.60;99.40;;;;;;5020437;28;20117;-83
2021/01/13 00:11:59;;;;;;;11.45;1.85;;;2.90;99.40;;;;;;5026221;28;20443;-84
2021/01/13 00:14:25;;;;;;;9.48;1.40;;;2.70;99.30;;;;;;5022171;28;20052;-84
2021/01/13 00:16:52;;;;;;;14.90;1.67;;;2.90;99.20;;;;;;5025389;28;20095;-83
2021/01/13 00:19:19;;;;;;;11.23;1.67;;;2.70;99.00;;;;;;5027030;28;20036;-84
2021/01/13 00:21:52;;;;;;;10.15;1.40;;;2.80;98.80;;;;;;5025771;28;20175;-84
2021/01/13 00:24:19;;;;;;;16.85;1.60;;;2.70;98.50;;;;;;5024849;28;20045;-84
2021/01/13 00:26:45;;;;;;;11.15;1.98;;;2.70;98.30;;;;;;5024101;28;20037;-84
2021/01/13 00:29:16;;;;;;;14.27;1.50;;;2.50;98.10;;;;;;5027719;28;20037;-84
2021/01/13 00:31:42;;;;;;;8.02;1.90;;;2.80;97.70;;;;;;5020559;28;20052;-83
2021/01/13 00:34:15;;;;;;;3.72;0.63;;;2.70;97.50;;;;;;5024397;28;20099;-83
2021/01/13 00:36:42;;;;;;;10.95;1.02;;;2.70;97.20;;;;;;5008077;28;20077;-82
2021/01/13 00:39:08;;;;;;;9.90;1.20;;;2.80;97.00;;;;;;5024712;28;20412;-83
2021/01/13 00:41:38;;;;;;;8.07;1.00;;;2.90;97.50;;;;;;5026309;28;20554;-82
2021/01/13 00:44:05;;;;;;;7.45;1.10;;;2.70;97.20;;;;;;5024009;28;20523;-83
2021/01/13 00:46:39;;;;;;;8.63;0.85;;;2.70;97.10;;;;;;5025939;28;20041;-84
2021/01/13 00:49:06;;;;;;;15.52;1.70;;;2.70;97.10;;;;;;5026430;28;20044;-83
2021/01/13 00:51:40;;;;;;;13.57;1.30;;;2.60;97.10;;;;;;5026357;28;20037;-83
2021/01/13 00:54:07;;;;;;;8.73;1.38;;;2.60;96.90;;;;;;5023534;28;20034;-84
2021/01/13 00:56:34;;;;;;;10.50;1.05;;;2.70;97.00;;;;;;5034294;28;20413;-84
2021/01/13 00:59:02;;;;;;;8.07;1.13;;;2.80;96.90;;;;;;5037644;28;20053;-83
2021/01/13 01:01:28;;;;;;;10.00;1.20;;;2.80;97.00;;;;;;5023555;28;20049;-83
2021/01/13 01:03:55;;;;;;;10.85;1.05;;;2.80;97.00;;;;;;5022454;28;20037;-83
2021/01/13 01:06:21;;;;;;;5.22;0.82;;;2.90;97.00;;;;;;5023268;28;20050;-83
2021/01/13 01:08:47;;;;;;;8.48;1.30;;;2.90;96.90;;;;;;5026483;28;20060;-83
2021/01/13 01:11:26;;;;;;;14.77;1.17;;;3.10;97.20;;;;;;5029393;28;20435;-83
2021/01/13 01:13:57;;;;;;;6.35;0.70;;;2.90;96.90;;;;;;5023687;28;20404;-83
2021/01/13 01:16:37;;;;;;;11.95;1.42;;;3.00;96.90;;;;;;5026214;28;20167;-84
2021/01/13 01:19:05;;;;;;;12.25;1.40;;;3.10;97.00;;;;;;5040690;28;20037;-84
2021/01/13 01:21:31;;;;;;;10.15;1.33;;;3.10;97.00;;;;;;5028424;28;20046;-85
2021/01/13 01:23:56;;;;;;;12.10;1.17;;;3.30;97.30;;;;;;5026461;28;20091;-84
2021/01/13 01:26:22;;;;;;;9.90;1.35;;;3.60;97.40;;;;;;5012228;28;20432;-86
2021/01/13 01:28:48;;;;;;;11.57;1.15;;;3.40;97.80;;;;;;5028035;28;20033;-86
2021/01/13 01:31:15;;;;;;;17.95;2.55;;;3.50;98.70;;;;;;5030441;28;20060;-85
2021/01/13 01:33:41;;;;;;;11.52;1.42;;;3.40;99.50;;;;;;5029305;28;20073;-85
2021/01/13 01:36:07;;;;;;;11.13;1.70;;;3.40;99.80;;;;;;4994826;28;20150;-84
2021/01/13 01:38:34;;;;;;;12.82;1.65;;;3.30;99.70;;;;;;5030978;28;20834;-85
2021/01/13 01:41:08;;;;;;;8.85;0.95;;;3.50;99.90;;;;;;5028243;28;20773;-85
2021/01/13 01:43:35;;;;;;;14.33;1.67;;;3.20;99.90;;;;;;5025878;28;20041;-85
2021/01/13 01:46:01;;;;;;;8.00;1.20;;;3.20;99.90;;;;;;5046078;28;20049;-85
2021/01/13 01:48:35;;;;;;;8.95;1.13;;;3.20;99.90;;;;;;5014131;28;20045;-85
2021/01/13 01:51:01;;;;;;;11.55;1.38;;;3.10;99.80;;;;;;5011081;28;20792;-85
2021/01/13 01:53:36;;;;;;;12.63;1.20;;;3.20;99.90;;;;;;5027414;28;20087;-85
2021/01/13 01:56:14;;;;;;;;;;;3.50;99.90;;;;;;5041319;28;20152;-85
2021/01/13 01:58:49;;;;;;;11.55;1.50;;;3.10;99.90;;;;;;5028749;28;19931;-85
2021/01/13 02:01:27;;;;;;;13.95;1.70;;;3.10;99.90;;;;;;5028397;28;20048;-85
2021/01/13 02:03:57;;;;;;;10.20;1.08;;;3.10;99.90;;;;;;5013340;28;20058;-85
2021/01/13 02:06:31;;;;;;;8.98;1.05;;;3.20;99.90;;;;;;5012405;28;20045;-84
2021/01/13 02:08:57;;;;;;;18.47;2.13;;;3.50;99.90;;;;;;5027299;28;20038;-85
2021/01/13 02:11:26;;;;;;;16.15;1.10;;;3.10;99.90;;;;;;5028081;28;20727;-84
2021/01/13 02:13:52;;;;;;;13.63;1.65;;;3.00;99.90;;;;;;5026580;28;20041;-84
2021/01/13 02:16:19;;;;;;;14.90;1.35;;;2.90;99.90;;;;;;5023348;28;20103;-84
2021/01/13 02:18:49;;;;;;;12.95;2.00;;;2.90;99.90;;;;;;5026471;28;20044;-83
2021/01/13 02:21:21;;;;;;;7.85;1.00;;;2.80;99.90;;;;;;5027624;28;20065;-85
2021/01/13 02:24:09;;;;;;;8.85;1.83;;;2.80;99.90;;;;;;5028935;28;20061;-83
2021/01/13 02:27:12;;;;;;;14.10;1.67;;;3.00;99.90;;;;;;5040070;28;20037;-84
2021/01/13 02:29:43;;;;;;;6.75;0.80;;;2.90;99.90;;;;;;5025939;28;20101;-84
2021/01/13 02:32:20;;;;;;;8.75;1.00;;;3.00;99.90;;;;;;5028470;28;20388;-84
2021/01/13 02:35:00;;;;;;;5.13;1.08;;;3.00;99.90;;;;;;5028980;28;20103;-83
2021/01/13 02:37:42;;;;;;;9.43;0.90;;;3.00;99.90;;;;;;5024177;28;20108;-84
2021/01/13 02:40:18;;;;;;;5.68;0.50;;;3.00;99.90;;;;;;5024561;28;20044;-85
2021/01/13 02:43:04;;;;;;;8.38;0.80;;;3.00;99.90;;;;;;5043676;28;20121;-84
2021/01/13 02:45:43;;;;;;;6.85;0.75;;;3.00;99.90;;;;;;5023470;28;20057;-83
2021/01/13 02:48:10;;;;;;;12.68;1.10;;;3.10;99.90;;;;;;5027631;28;20103;-84
2021/01/13 02:50:45;;;;;;;6.22;1.25;;;3.10;99.90;;;;;;5030437;28;20462;-84
2021/01/13 02:53:13;;;;;;;6.72;1.02;;;3.00;99.90;;;;;;5015132;28;20049;-84
2021/01/13 02:55:48;;;;;;;12.38;1.70;;;3.00;99.90;;;;;;5025597;28;20057;-83
2021/01/13 02:58:36;;;;;;;15.15;1.70;;;3.20;99.90;;;;;;5046570;28;20057;-86
2021/01/13 03:01:05;;;;;;;18.60;1.95;;;3.00;99.90;;;;;;5012709;28;20160;-86
2021/01/13 03:03:32;;;;;;;14.15;1.60;;;3.00;99.90;;;;;;5032279;28;20045;-85
2021/01/13 03:06:03;;;;;;;9.15;1.25;;;3.10;99.90;;;;;;5028742;28;20072;-85
2021/01/13 03:08:43;;;;;;;13.40;1.40;;;3.00;99.90;;;;;;5027140;28;20109;-84
2021/01/13 03:11:18;;;;;;;13.18;1.42;;;3.00;99.90;;;;;;5016602;28;20049;-84
2021/01/13 03:13:44;;;;;;;19.95;2.20;;;3.00;99.90;;;;;;5032865;28;20049;-84
2021/01/13 03:16:23;;;;;;;19.23;2.10;;;3.00;99.90;;;;;;5029814;28;20874;-83
2021/01/13 03:19:03;;;;;;;10.98;1.45;;;3.00;99.90;;;;;;5029847;28;20061;-84
2021/01/13 03:21:47;;;;;;;14.95;1.80;;;3.00;99.90;;;;;;5031580;28;20034;-84
2021/01/13 03:24:18;;;;;;;17.88;1.95;;;2.90;99.90;;;;;;5024567;28;20801;-83
2021/01/13 03:26:47;;;;;;;14.35;2.00;;;3.00;99.90;;;;;;5029559;28;20743;-84
2021/01/13 03:29:21;;;;;;;15.02;2.03;;;3.40;99.90;;;;;;5028860;28;20048;-84
2021/01/13 03:32:04;;;;;;;19.05;2.13;;;3.10;99.90;;;;;;5031684;28;20038;-85
2021/01/13 03:34:33;;;;;;;19.85;2.10;;;3.10;99.90;;;;;;5025864;28;20056;-84
2021/01/13 03:37:02;;;;;;;14.90;1.60;;;3.10;99.90;;;;;;5027288;28;20421;-83
2021/01/13 03:39:38;;;;;;;15.38;2.40;;;3.50;99.90;;;;;;5027136;28;20051;-84
2021/01/13 03:42:11;;;;;;;14.18;1.83;;;3.20;99.90;;;;;;5029968;28;20048;-84
2021/01/13 03:44:42;;;;;;;15.65;2.15;;;3.30;99.90;;;;;;5032071;28;20084;-84
2021/01/13 03:47:07;;;;;;;16.25;2.03;;;3.40;99.90;;;;;;5030765;28;20038;-84
2021/01/13 03:49:40;;;;;;;12.23;1.67;;;3.60;99.90;;;;;;5029843;28;20348;-85
2021/01/13 03:52:10;;;;;;;9.75;1.23;;;3.40;99.90;;;;;;5031574;28;20037;-85
2021/01/13 03:54:37;;;;;;;12.65;2.08;;;3.40;99.90;;;;;;5029566;28;20111;-84
2021/01/13 03:57:05;;;;;;;10.00;1.30;;;3.40;99.90;;;;;;5031180;28;20042;-85
2021/01/13 03:59:58;;;;;;;11.82;1.58;;;3.30;99.60;;;;;;5027721;28;20130;-84
2021/01/13 04:02:36;;;;;;;13.52;1.25;;;3.30;99.60;;;;;;5028755;28;20042;-85
2021/01/13 04:05:27;;;;;;;12.20;1.13;;;3.50;99.80;;;;;;5047439;28;20485;-85
2021/01/13 04:07:55;;;;;;;8.55;1.52;;;3.40;99.60;;;;;;5029005;28;20285;-86
2021/01/13 04:10:21;;;;;;;16.27;1.60;;;3.40;99.90;;;;;;5042034;28;20041;-84
2021/01/13 04:13:28;;;;;;;8.52;1.00;;;3.40;99.90;;;;;;5028597;28;20041;-83
2021/01/13 04:15:58;;;;;;;6.32;0.85;;;3.40;99.90;;;;;;4967559;28;20070;-85
2021/01/13 04:18:24;;;;;;;4.28;0.70;;;3.60;99.90;;;;;;4990467;28;20427;-85
2021/01/13 04:20:50;;;;;;;12.25;1.27;;;3.50;99.80;;;;;;4988758;28;20042;-85
2021/01/13 04:23:16;;;;;;;9.68;0.90;;;3.50;99.60;;;;;;4988256;28;20050;-86
2021/01/13 04:25:42;;;;;;;10.15;0.98;;;3.40;99.80;;;;;;4972000;28;20061;-85
2021/01/13 04:28:08;;;;;;;6.32;0.63;;;3.40;99.90;;;;;;4984187;28;20038;-84
2021/01/13 04:30:34;;;;;;;11.65;1.10;;;3.40;99.80;;;;;;4982270;28;20056;-85
2021/01/13 04:33:00;;;;;;;8.90;1.23;;;3.30;99.90;;;;;;4972448;28;20038;-85
2021/01/13 04:35:28;;;;;;;26.88;1.88;;;3.30;99.90;;;;;;4973466;28;20058;-81
2021/01/13 04:37:56;;;;;;;14.85;1.95;;;3.20;99.90;;;;;;4987448;28;20126;-84
2021/01/13 04:40:33;;;;;;;18.20;1.90;;;3.20;99.90;;;;;;4986580;28;20249;-84
2021/01/13 04:43:07;;;;;;;13.80;1.48;;;3.10;99.90;;;;;;4973968;28;20062;-86
2021/01/13 04:45:46;;;;;;;7.53;1.17;;;3.10;99.90;;;;;;4972597;28;20084;-88
2021/01/13 04:48:17;;;;;;;10.68;1.73;;;3.20;99.60;;;;;;4972954;28;20423;-87
2021/01/13 04:50:44;;;;;;;7.38;1.60;;;3.20;99.90;;;;;;5019141;28;20207;-85
2021/01/13 04:53:13;;;;;;;17.20;1.80;;;3.20;99.90;;;;;;5044002;28;20135;-86
2021/01/13 04:55:48;;;;;;;9.30;1.33;;;3.40;99.90;;;;;;5025949;28;20608;-85
2021/01/13 04:58:20;;;;;;;12.52;1.10;;;3.20;99.90;;;;;;5031727;28;20128;-86
2021/01/13 05:01:04;;;;;;;11.32;1.20;;;3.20;99.90;;;;;;5027643;28;20030;-86
2021/01/13 05:04:23;;;;;;;18.85;1.73;;;3.10;99.90;;;;;;5028844;28;20045;-84
2021/01/13 05:07:12;;;;;;;8.18;1.33;;;3.10;99.90;;;;;;5023777;28;20045;-86
2021/01/13 05:10:04;;;;;;;11.93;1.30;;;3.10;99.90;;;;;;5029871;28;20066;-85
2021/01/13 05:12:53;;;;;;;11.45;1.52;;;3.10;99.90;;;;;;5010165;28;20050;-86
2021/01/13 05:15:20;;;;;;;17.20;2.00;;;3.10;99.90;;;;;;5022008;28;20037;-86
2021/01/13 05:18:04;;;;;;;13.77;1.83;;;3.40;99.90;;;;;;5013112;28;20081;-87
2021/01/13 05:20:33;;;;;;;11.75;1.50;;;3.10;99.90;;;;;;5027493;28;20077;-86
2021/01/13 05:23:00;;;;;;;16.25;2.58;;;3.10;99.90;;;;;;5027687;28;20037;-86
2021/01/13 05:25:39;;;;;;;16.45;1.70;;;3.00;99.90;;;;;;5010942;28;20414;-85
2021/01/13 05:28:08;;;;;;;21.15;2.10;;;3.00;99.90;;;;;;5027915;28;20037;-87
2021/01/13 05:31:08;;;;;;;18.38;1.92;;;3.00;99.90;;;;;;5028204;28;20200;-88
2021/01/13 05:33:47;;;;;;;19.67;2.75;;;3.10;99.90;;;;;;4939658;28;20070;-87
2021/01/13 05:36:22;;;;;;;17.33;1.80;;;3.20;99.90;;;;;;4944144;28;20043;-86
2021/01/13 05:39:07;;;;;;;16.33;1.70;;;3.20;99.90;;;;;;4952332;28;20058;-86
2021/01/13 05:41:36;;;;;;;25.50;2.33;;;3.20;99.90;;;;;;4969428;28;20197;-86
2021/01/13 05:44:04;;;;;;;8.13;1.50;;;3.10;99.90;;;;;;4948599;28;20062;-86
2021/01/13 05:47:03;;;;;;;8.55;1.50;;;3.10;99.90;;;;;;4967250;28;20046;-83
2021/01/13 05:49:29;;;;;;;15.82;1.63;;;3.10;99.90;;;;;;4969379;28;20050;-85
2021/01/13 05:52:05;;;;;;;15.57;1.50;;;3.20;99.90;;;;;;4945733;28;20129;-84
2021/01/13 05:54:36;;;;;;;9.27;1.02;;;3.20;99.90;;;;;;4955072;28;20541;-86
2021/01/13 05:57:03;;;;;;;9.00;0.80;;;3.20;99.90;;;;;;4955259;28;20181;-85
2021/01/13 05:59:33;;;;;;;9.25;1.30;;;3.20;99.90;;;;;;4970956;28;20058;-84
2021/01/13 06:02:03;;;;;;;11.73;1.13;;;3.20;99.90;;;;;;4953576;28;20043;-83
2021/01/13 06:04:30;;;;;;;11.43;1.50;;;3.20;99.90;;;;;;4943504;29;20578;-82
2021/01/13 06:07:29;;;;;;;13.25;1.42;;;3.10;99.90;;;;;;4955478;28;20047;-83
2021/01/13 06:09:56;;;;;;;15.25;1.17;;;3.00;99.90;;;;;;4971711;28;20078;-82
2021/01/13 06:12:23;;;;;;;20.58;2.38;;;3.00;99.90;;;;;;4971112;28;20067;-82
2021/01/13 06:14:50;;;;;;;15.95;1.75;;;2.90;99.90;;;;;;4966735;28;20046;-83
2021/01/13 06:17:24;;;;;;;12.85;1.70;;;2.90;99.90;;;;;;4986987;28;20046;-81
2021/01/13 06:19:52;;;;;;;15.95;2.80;;;2.80;99.90;;;;;;4986794;28;20058;-82
2021/01/13 06:22:18;;;;;;;23.73;2.97;;;2.80;99.90;;;;;;4988461;28;20129;-82
2021/01/13 06:24:46;;;;;;;18.52;3.25;;;2.80;99.90;;;;;;4989605;28;20077;-81
2021/01/13 06:27:19;;;;;;;24.15;3.08;;;2.80;99.90;;;;;;4983911;28;20051;-81
2021/01/13 06:30:00;;;;;;;24.23;2.60;;;3.00;99.90;;;;;;4958954;28;20077;-81
2021/01/13 06:32:29;;;;;;;16.15;2.08;;;3.00;99.90;;;;;;4985146;28;20110;-81
2021/01/13 06:35:13;;;;;;;11.98;1.70;;;3.30;99.90;;;;;;4987566;28;20046;-81
2021/01/13 06:37:49;;;;;;;17.63;1.63;;;3.10;99.90;;;;;;4983954;28;20046;-81
2021/01/13 06:40:20;;;;;;;16.35;2.03;;;3.30;99.90;;;;;;4987475;28;20481;-81
2021/01/13 06:42:48;;;;;;;13.05;1.85;;;3.30;99.90;;;;;;4965047;28;20046;-81
2021/01/13 06:45:32;;;;;;;12.52;1.60;;;3.70;99.90;;;;;;4994685;28;20060;-82
2021/01/13 06:47:59;;;;;;;8.57;1.15;;;3.00;99.90;;;;;;5017754;28;20037;-82
2021/01/13 06:50:44;;;;;;;19.35;1.67;;;3.10;99.90;;;;;;5025770;28;20045;-83
2021/01/13 06:53:12;;;;;;;;;;;2.90;99.90;;;;;;5025423;28;20045;-82
2021/01/13 06:55:40;;;;;;;9.68;1.30;;;3.00;99.90;;;;;;5027431;28;20292;-82
2021/01/13 06:58:14;;;;;;;15.60;2.00;;;3.20;99.90;;;;;;5009486;28;20152;-82
2021/01/13 07:00:42;;;;;;;15.32;1.75;;;3.10;99.90;;;;;;5028863;28;20140;-82
2021/01/13 07:03:31;;;;;;;15.00;1.88;;;3.10;99.90;;;;;;5030911;28;20496;-81
2021/01/13 07:06:03;;;;;;;15.38;1.55;;;3.20;99.90;;;;;;5027875;28;20733;-83
2021/01/13 07:08:29;;;;;;;14.95;1.80;;;3.20;99.90;;;;;;5013102;28;20053;-82
2021/01/13 07:11:10;;;;;;;14.40;1.95;;;3.20;99.90;;;;;;5012885;28;20056;-81
2021/01/13 07:13:41;;;;;;;16.23;1.60;;;3.10;99.90;;;;;;5025310;28;20761;-81
2021/01/13 07:16:08;;;;;;;16.00;1.98;;;3.00;99.90;;;;;;5010280;28;20056;-81
2021/01/13 07:18:35;;;;;;;14.43;1.75;;;3.10;99.90;;;;;;5024435;28;20064;-82
2021/01/13 07:21:09;;;;;;;13.00;1.20;;;3.00;99.90;;;;;;5028718;28;20033;-82
2021/01/13 07:23:46;;;;;;;9.32;1.27;;;3.00;99.90;;;;;;5028325;28;20528;-81
2021/01/13 07:26:12;;;;;;;15.18;1.50;;;3.00;99.90;;;;;;5026791;28;20049;-82
2021/01/13 07:28:39;;;;;;;12.02;1.30;;;3.00;99.90;;;;;;5008515;28;20581;-81
2021/01/13 07:31:18;;;;;;;12.73;1.88;;;3.00;99.90;;;;;;5028531;28;20045;-82
2021/01/13 07:34:16;;;;;;;20.50;2.13;;;2.90;99.90;;;;;;5024986;28;20396;-80
2021/01/13 07:36:49;;;;;;;9.43;1.45;;;2.90;99.90;;;;;;5026816;28;20706;-81
2021/01/13 07:39:17;;;;;;;17.23;2.17;;;3.20;99.90;;;;;;5025583;28;20080;-81
2021/01/13 07:42:11;;;;;;;14.45;1.90;;;2.90;99.90;;;;;;5026175;28;20045;-80
2021/01/13 07:44:49;;;;;;;22.20;2.35;;;2.90;99.90;;;;;;5008535;28;20049;-82
2021/01/13 07:47:30;;;;;;;20.13;2.67;;;2.90;99.90;;;;;;5008200;28;20041;-82
2021/01/13 07:50:06;;;;;;;15.98;1.73;;;2.80;99.90;;;;;;5024725;28;20099;-82
2021/01/13 07:52:46;;;;;;;30.67;2.42;;;2.90;99.90;;;;;;5023388;28;20045;-82
2021/01/13 07:55:16;;;;;;;21.20;2.42;;;2.90;99.90;;;;;;5026911;28;20048;-81
2021/01/13 07:57:50;;;;;;;19.92;2.72;;;2.90;99.90;;;;;;5026947;28;20408;-81
2021/01/13 08:00:34;;;;;;;12.95;1.48;;;2.90;99.90;;;;;;5024893;28;22101;-82
2021/01/13 08:03:17;;;;;;;16.98;2.30;;;2.90;99.90;;;;;;5025643;28;20045;-81
2021/01/13 08:06:02;;;;;;;18.15;1.98;;;2.90;99.90;;;;;;5024405;28;20056;-81
2021/01/13 08:09:02;;;;;;;12.65;1.92;;;2.80;99.90;;;;;;5023153;28;20121;-82
2021/01/13 08:11:55;;;;;;;9.45;1.35;;;3.20;99.90;;;;;;5025014;28;20052;-84
2021/01/13 08:14:40;;;;;;;11.98;1.58;;;3.00;99.90;;;;;;5022624;28;20049;-81
2021/01/13 08:17:53;;;;;;;10.82;1.52;;;3.00;99.90;;;;;;5006135;28;20148;-84
2021/01/13 08:20:52;;;;;;;10.40;1.85;;;3.00;99.90;;;;;;5015423;28;20132;-82
2021/01/13 08:23:27;;;;;;;23.10;2.00;;;3.00;99.90;;;;;;5022822;28;20049;-83
2021/01/13 08:26:03;;;;;;;17.00;1.73;;;3.00;99.90;;;;;;5024232;28;20053;-82
2021/01/13 08:28:41;;;;;;;15.30;1.85;;;3.00;99.90;;;;;;5027043;28;20083;-82
2021/01/13 08:31:08;;;;;;;14.18;1.95;;;3.10;99.90;;;;;;5025478;28;20072;-82
2021/01/13 08:33:36;;;;;;;13.25;1.77;;;3.10;99.90;;;;;;5029100;28;20045;-83
2021/01/13 08:36:13;;;;;;;18.60;2.13;;;3.20;99.90;;;;;;5030038;28;20507;-83
2021/01/13 08:39:15;;;;;;;17.88;2.25;;;3.20;99.90;;;;;;5027136;28;20089;-83
2021/01/13 08:41:43;;;;;;;18.80;2.55;;;3.30;99.90;;;;;;5030514;28;20034;-83
2021/01/13 08:44:15;;;;;;;21.33;2.60;;;3.40;99.90;;;;;;5027247;28;20136;-84
2021/01/13 08:47:01;;;;;;;15.85;2.83;;;3.40;99.90;;;;;;5030776;28;20521;-82
2021/01/13 08:49:30;;;;;;;18.77;2.65;;;3.30;99.90;;;;;;5009687;28;20172;-83
2021/01/13 08:52:36;;;;;;;;;;;;;;;;;;;;;
2021/01/13 08:55:14;;;;;;;13.00;1.23;;;3.10;99.90;;;;;;4966764;28;20067;-82
2021/01/13 08:57:52;;;;;;;;;;;3.10;99.90;;;;;;4954064;28;20094;-84
2021/01/13 09:00:20;;;;;;;8.75;1.35;;;3.00;99.90;;;;;;4945223;28;19953;-83
2021/01/13 09:03:07;;;;;;;8.07;1.30;;;3.00;99.90;;;;;;4965787;28;20058;-81
2021/01/13 09:05:38;;;;;;;14.55;1.52;;;3.00;99.90;;;;;;4947999;28;20135;-81
2021/01/13 09:08:29;;;;;;;15.77;1.60;;;2.90;99.90;;;;;;4951456;28;20490;-83
2021/01/13 09:10:55;;;;;;;14.13;1.92;;;3.00;99.90;;;;;;4960663;28;20047;-83
2021/01/13 09:13:36;;;;;;;14.27;1.73;;;3.00;99.90;;;;;;4929342;28;20073;-83
2021/01/13 09:16:22;;;;;;;15.75;2.25;;;3.00;99.90;;;;;;4954451;28;20039;-83
2021/01/13 09:18:58;;;;;;;22.13;2.28;;;3.20;99.90;;;;;;4943597;28;20079;-85
2021/01/13 09:21:30;;;;;;;15.88;2.03;;;3.10;99.90;;;;;;4944339;28;20055;-83
2021/01/13 09:26:58;;;;;;;22.98;2.55;;;3.00;99.90;;;;;;4932822;28;20486;-79
2021/01/13 09:29:24;;;;;;;26.77;3.28;;;3.10;99.90;;;;;;4946499;29;20059;-85
2021/01/13 09:32:15;;;;;;;20.80;2.38;;;3.20;99.90;;;;;;4968379;28;20056;-83
2021/01/13 09:34:46;;;;;;;17.58;2.22;;;3.50;99.90;;;;;;5029781;28;20052;-83
2021/01/13 09:37:15;;;;;;;18.45;2.17;;;3.70;99.90;;;;;;5003020;28;20056;-82
2021/01/13 09:39:59;;;;;;;20.10;2.03;;;3.70;99.90;;;;;;5022321;28;20061;-82
2021/01/13 09:42:45;;;;;;;17.95;2.10;;;3.80;99.90;;;;;;5012294;28;20479;-83
2021/01/13 09:45:12;;;;;;;14.57;1.37;;;4.30;99.90;;;;;;5022190;28;20077;-81
2021/01/13 09:47:39;;;;;;;16.80;1.70;;;4.10;99.90;;;;;;5033546;28;20335;-82
2021/01/13 09:50:25;;;;;;;14.77;2.08;;;4.10;99.90;;;;;;5026132;28;20053;-82
2021/01/13 09:52:54;;;;;;;7.90;1.23;;;4.30;99.60;;;;;;5008611;28;20045;-85
2021/01/13 09:58:39;;;;;;;16.83;4.22;;;4.20;98.30;;;;;;4954256;28;20066;-85
2021/01/13 10:01:09;;;;;;;14.70;4.15;;;3.90;98.70;;;;;;4964259;28;21026;-83
2021/01/13 10:03:35;;;;;;;12.32;1.95;;;3.90;98.50;;;;;;4965970;28;20051;-82
2021/01/13 10:06:27;;;;;;;14.75;1.60;;;3.90;99.20;;;;;;4966248;28;20605;-83
2021/01/13 10:09:00;;;;;;;12.52;1.70;;;3.90;99.60;;;;;;4953269;28;20129;-82
2021/01/13 10:11:28;;;;;;;10.13;1.42;;;3.90;99.90;;;;;;4932042;28;20063;-81
2021/01/13 10:14:01;;;;;;;16.60;1.48;;;3.90;99.90;;;;;;4967796;28;20057;-81
2021/01/13 10:16:28;;;;;;;16.73;1.52;;;4.00;99.90;;;;;;4968377;28;20085;-82
2021/01/13 10:19:04;;;;;;;13.45;1.35;;;4.00;99.90;;;;;;4958687;28;20054;-81
2021/01/13 10:21:57;;;;;;;11.30;1.42;;;4.20;99.90;;;;;;4969395;28;20090;-82
2021/01/13 10:24:39;;;;;;;16.57;2.17;;;4.40;99.90;;;;;;4912490;29;20502;-82
2021/01/13 10:27:23;;;;;;;11.52;1.30;;;4.50;99.90;;;;;;4912239;29;20052;-81
2021/01/13 10:29:53;;;;;;;12.35;2.47;;;4.70;99.90;;;;;;4911128;29;20058;-82
2021/01/13 10:32:20;;;;;;;17.85;2.67;;;4.80;99.90;;;;;;4913767;29;20051;-82
2021/01/13 10:34:54;;;;;;;12.90;1.45;;;4.80;99.90;;;;;;4905773;28;20105;-82
2021/01/13 10:37:20;;;;;;;20.38;2.78;;;5.00;99.70;;;;;;4940677;28;20093;-81
2021/01/13 10:39:49;;;;;;;26.75;3.25;;;5.00;99.90;;;;;;4944091;28;20454;-79
2021/01/13 10:42:17;;;;;;;30.83;3.28;;;5.20;99.40;;;;;;4946664;28;20070;-82
2021/01/13 10:44:43;;;;;;;16.55;2.45;;;5.30;99.60;;;;;;4956990;28;20090;-82
2021/01/13 10:47:11;;;;;;;22.90;2.25;;;5.40;99.60;;;;;;4955355;28;20042;-82
2021/01/13 10:49:42;;;;;;;18.55;2.40;;;5.40;99.10;;;;;;4959987;28;20055;-82
2021/01/13 10:52:13;;;;;;;9.25;1.30;;;5.50;97.80;;;;;;4956344;28;20125;-83
2021/01/13 10:54:44;;;;;;;19.15;2.25;;;5.50;97.90;;;;;;4955849;28;20056;-83
2021/01/13 10:57:12;;;;;;;17.75;2.30;;;5.60;97.80;;;;;;4954349;28;20054;-84
2021/01/13 10:59:40;;;;;;;20.92;2.92;;;5.70;97.40;;;;;;4954027;28;20493;-79
2021/01/13 11:02:14;;;;;;;13.10;1.45;;;5.80;98.00;;;;;;5009590;28;20361;-84
2021/01/13 11:04:42;;;;;;;16.52;3.03;;;6.00;97.10;;;;;;5022138;28;20057;-81
2021/01/13 11:07:19;;;;;;;18.90;2.20;;;6.10;97.10;;;;;;5036107;28;20061;-81
2021/01/13 11:09:47;;;;;;;15.25;2.08;;;6.20;96.20;;;;;;5025982;28;20053;-82
2021/01/13 11:12:24;;;;;;;18.85;2.22;;;6.30;96.30;;;;;;5031514;28;20065;-82
2021/01/13 11:14:54;;;;;;;24.05;3.05;;;6.30;96.00;;;;;;5030710;28;20133;-82
2021/01/13 11:17:27;;;;;;;21.52;2.70;;;6.30;96.30;;;;;;5030847;28;20060;-83
2021/01/13 11:19:53;;;;;;;24.90;2.85;;;6.40;96.70;;;;;;5030838;28;20477;-83
2021/01/13 11:22:21;;;;;;;19.27;2.63;;;6.40;96.40;;;;;;5030282;28;20052;-82
2021/01/13 11:24:49;;;;;;;24.60;2.22;;;6.20;96.50;;;;;;5028861;28;20472;-83
2021/01/13 11:27:19;;;;;;;20.80;2.65;;;6.20;95.80;;;;;;5032059;28;20049;-82
2021/01/13 11:29:52;;;;;;;20.83;3.17;;;6.20;96.00;;;;;;5028071;28;20108;-82
2021/01/13 11:32:20;;;;;;;22.40;2.85;;;6.10;95.90;;;;;;5014065;28;20063;-82
2021/01/13 11:34:53;;;;;;;22.65;2.80;;;6.10;96.00;;;;;;5031208;28;20041;-82
2021/01/13 11:37:43;;;;;;;24.50;2.75;;;6.20;95.70;;;;;;5030859;28;20076;-81
2021/01/13 11:40:23;;;;;;;20.67;2.72;;;6.20;95.90;;;;;;5030697;28;20045;-82
2021/01/13 11:43:11;;;;;;;12.20;2.10;;;6.20;95.90;;;;;;5031644;28;20041;-82
2021/01/13 11:46:02;;;;;;;17.85;1.92;;;6.40;95.00;;;;;;5026892;28;20568;-82
2021/01/13 11:48:40;;;;;;;17.23;2.03;;;6.30;94.50;;;;;;5015906;28;20051;-82
2021/01/13 11:51:11;;;;;;;4.63;0.80;;;6.10;95.80;;;;;;5031973;28;20045;-82
2021/01/13 11:53:39;;;;;;;7.20;1.10;;;5.90;95.10;;;;;;5031062;28;20045;-82
2021/01/13 11:56:05;;;;;;;6.47;1.23;;;5.30;95.80;;;;;;5031172;28;20115;-80
2021/01/13 11:58:32;;;;;;;7.18;0.60;;;5.20;95.70;;;;;;5030920;28;20061;-81
2021/01/13 12:00:58;;;;;;;4.63;0.65;;;5.10;94.80;;;;;;5043423;28;20483;-80
2021/01/13 12:03:24;;;;;;;4.28;0.70;;;5.30;94.80;;;;;;5029448;28;20045;-81
2021/01/13 12:05:50;;;;;;;5.88;0.73;;;5.00;95.70;;;;;;5031031;28;20056;-80
2021/01/13 12:08:28;;;;;;;11.55;1.30;;;5.10;96.40;;;;;;5031103;28;20049;-82
2021/01/13 12:10:54;;;;;;;14.88;1.40;;;5.10;97.10;;;;;;5029644;28;20052;-80
2021/01/13 12:13:23;;;;;;;11.20;1.60;;;5.20;96.70;;;;;;5010633;28;20453;-80
2021/01/13 12:15:58;;;;;;;12.15;1.45;;;5.10;97.60;;;;;;5028582;28;20041;-82
2021/01/13 12:18:42;;;;;;;18.05;2.40;;;5.10;96.80;;;;;;5017179;28;20095;-82
2021/01/13 12:21:14;;;;;;;18.98;2.60;;;5.20;97.30;;;;;;5027530;28;20057;-82
2021/01/13 12:23:47;;;;;;;14.85;1.92;;;5.20;97.10;;;;;;5027914;28;20054;-83
2021/01/13 12:26:14;;;;;;;18.65;2.90;;;5.20;97.60;;;;;;5021392;28;20596;-83
2021/01/13 12:28:42;;;;;;;18.50;2.70;;;5.40;97.70;;;;;;5028978;28;20044;-83
2021/01/13 12:31:08;;;;;;;23.80;2.42;;;5.50;96.80;;;;;;5027154;28;20071;-86
2021/01/13 12:33:38;;;;;;;19.92;2.35;;;5.50;96.40;;;;;;5026753;28;20069;-85
2021/01/13 12:36:21;;;;;;;18.63;2.25;;;5.60;97.10;;;;;;5022615;28;20119;-85
2021/01/13 12:38:48;;;;;;;15.02;2.58;;;5.70;96.50;;;;;;5018503;28;20068;-83
2021/01/13 12:41:28;;;;;;;18.13;2.95;;;5.90;95.60;;;;;;5009653;28;20050;-84
2021/01/13 12:44:00;;;;;;;20.67;2.58;;;6.10;95.00;;;;;;5039573;28;20038;-85
2021/01/13 12:46:31;;;;;;;23.13;3.28;;;6.10;94.50;;;;;;5027017;28;20107;-85
2021/01/13 12:52:10;;;;;;;18.95;2.42;;;6.20;94.70;;;;;;4993972;28;20072;-83
2021/01/13 12:54:37;;;;;;;26.67;3.58;;;6.50;93.80;;;;;;4989271;28;20070;-82
2021/01/13 12:57:10;;;;;;;11.10;2.15;;;6.50;94.30;;;;;;4997920;28;20054;-84
2021/01/13 12:59:41;;;;;;;16.95;2.20;;;6.40;93.80;;;;;;5006892;28;20074;-83
2021/01/13 13:02:48;;;;;;;17.58;2.05;;;6.40;93.70;;;;;;4990880;28;20137;-83
2021/01/13 13:05:18;;;;;;;8.90;1.48;;;6.10;94.30;;;;;;4972093;28;20052;-83
2021/01/13 13:07:43;;;;;;;8.13;1.65;;;5.80;94.40;;;;;;4987485;28;20058;-83
2021/01/13 13:10:10;;;;;;;8.32;1.63;;;5.70;94.40;;;;;;4998332;28;20045;-83
2021/01/13 13:12:39;;;;;;;13.25;2.42;;;5.60;94.10;;;;;;5002675;28;20212;-82
2021/01/13 13:15:15;;;;;;;11.27;2.03;;;5.60;94.60;;;;;;4986647;28;20050;-83
2021/01/13 13:17:41;;;;;;;13.80;2.15;;;5.50;94.60;;;;;;5003860;28;20049;-81
2021/01/13 13:20:09;;;;;;;14.02;2.17;;;5.50;94.90;;;;;;4988272;28;20088;-82
2021/01/13 13:22:48;;;;;;;13.35;2.17;;;5.60;94.80;;;;;;4987111;28;20053;-83
2021/01/13 13:25:24;;;;;;;12.25;1.90;;;5.70;94.60;;;;;;4972853;28;20053;-81
2021/01/13 13:27:50;;;;;;;11.20;1.70;;;5.70;94.70;;;;;;4987612;28;20037;-83
2021/01/13 13:30:17;;;;;;;20.13;2.65;;;5.70;94.50;;;;;;5021848;28;20065;-83
2021/01/13 13:32:53;;;;;;;14.85;1.95;;;5.70;94.60;;;;;;5023814;28;20048;-82
2021/01/13 13:35:20;;;;;;;14.93;1.77;;;5.60;94.70;;;;;;5004500;28;20436;-82